Aviation Digital Data Service (ADDS)

Output produced by METARs form (0328 UTC 30 May 2017)
found at http://www.aviationweather.gov/adds/metars/
 
VDSR 300300Z 00000KT 9999 SCT015 31/27 Q1008
TAF VDSR 292300Z 3000/3018 28005KT 9999 SCT017 SCT040 
     TEMPO 3006/3011 5000 SHRA SCT013 FEW017CB BKN040